createdAt,value
2022-10-13T00:01:12.526Z,51.10
2022-10-13T00:03:40.212Z,51.20
2022-10-13T00:06:08.660Z,51.10
2022-10-13T00:08:36.142Z,51.00
2022-10-13T00:11:18.449Z,51.00
2022-10-13T00:13:45.780Z,51.10
2022-10-13T00:16:14.667Z,50.80
2022-10-13T00:18:41.746Z,50.80
2022-10-13T00:21:11.063Z,50.80
2022-10-13T00:23:38.481Z,50.80
2022-10-13T00:26:08.421Z,50.80
2022-10-13T00:28:36.161Z,50.90
2022-10-13T00:31:02.894Z,50.90
2022-10-13T00:33:29.652Z,50.90
2022-10-13T00:35:56.298Z,50.90
2022-10-13T00:38:23.566Z,50.90
2022-10-13T00:40:55.807Z,50.90
2022-10-13T00:43:24.258Z,51.00
2022-10-13T00:45:52.054Z,51.00
2022-10-13T00:48:31.144Z,51.00
2022-10-13T00:50:58.546Z,51.30
2022-10-13T00:53:31.471Z,51.10
2022-10-13T00:55:58.900Z,51.20
2022-10-13T00:58:31.282Z,51.10
2022-10-13T01:00:58.907Z,51.10
2022-10-13T01:03:27.607Z,51.10
2022-10-13T01:05:58.844Z,51.20
2022-10-13T01:08:29.401Z,51.30
2022-10-13T01:11:03.993Z,51.30
2022-10-13T01:14:26.238Z,51.30
2022-10-13T01:17:01.390Z,52.10
2022-10-13T01:19:47.003Z,51.60
2022-10-13T01:22:52.825Z,52.00
2022-10-13T01:25:52.070Z,51.90
2022-10-13T01:28:33.206Z,52.20
2022-10-13T01:31:24.844Z,52.10
2022-10-13T01:34:05.841Z,52.30
2022-10-13T01:36:58.576Z,52.30
2022-10-13T01:39:51.965Z,52.60
2022-10-13T01:42:24.731Z,52.20
2022-10-13T01:45:00.238Z,52.10
2022-10-13T01:47:28.816Z,52.10
2022-10-13T01:49:57.150Z,52.00
2022-10-13T01:52:30.809Z,52.10
2022-10-13T01:54:57.446Z,52.20
2022-10-13T01:57:55.685Z,52.10
2022-10-13T02:00:22.891Z,52.20
2022-10-13T02:03:04.756Z,52.10
2022-10-13T02:05:55.585Z,52.40
2022-10-13T02:08:34.397Z,52.40
2022-10-13T02:11:17.479Z,52.10
2022-10-13T02:14:11.052Z,52.10
2022-10-13T02:16:41.849Z,52.20
2022-10-13T02:19:12.548Z,52.10
2022-10-13T02:21:39.438Z,52.10
2022-10-13T02:24:07.611Z,52.20
2022-10-13T02:26:37.297Z,52.20
2022-10-13T02:29:11.816Z,52.20
2022-10-13T02:31:39.219Z,52.30
2022-10-13T02:34:06.750Z,52.30
2022-10-13T02:36:34.418Z,52.40
2022-10-13T02:39:01.083Z,52.50
2022-10-13T02:41:27.913Z,52.50
2022-10-13T02:43:54.687Z,52.60
2022-10-13T02:46:25.610Z,52.50
2022-10-13T02:48:52.284Z,52.60
2022-10-13T02:51:19.133Z,52.60
2022-10-13T02:53:45.982Z,52.70
2022-10-13T02:56:12.653Z,52.60
2022-10-13T02:58:39.290Z,52.60
2022-10-13T03:01:12.527Z,52.60
2022-10-13T03:03:40.313Z,52.70
2022-10-13T03:06:07.917Z,52.60
2022-10-13T03:08:35.719Z,52.70
2022-10-13T03:11:03.102Z,52.70
2022-10-13T03:13:29.813Z,52.70
2022-10-13T03:16:03.432Z,52.70
2022-10-13T03:18:30.214Z,52.70
2022-10-13T03:21:02.800Z,52.70
2022-10-13T03:23:30.016Z,52.80
2022-10-13T03:25:56.669Z,52.80
2022-10-13T03:28:23.674Z,52.80
2022-10-13T03:30:51.009Z,52.80
2022-10-13T03:33:17.750Z,52.80
2022-10-13T03:35:44.504Z,52.90
2022-10-13T03:38:11.183Z,52.90
2022-10-13T03:40:38.987Z,52.90
2022-10-13T03:43:05.749Z,52.80
2022-10-13T03:45:32.388Z,52.80
2022-10-13T03:47:58.996Z,52.80
2022-10-13T03:50:26.670Z,52.80
2022-10-13T03:52:54.553Z,52.70
2022-10-13T03:55:21.484Z,52.70
2022-10-13T03:57:48.140Z,52.70
2022-10-13T04:00:15.734Z,52.70
2022-10-13T04:02:42.484Z,52.70
2022-10-13T04:05:09.567Z,52.70
2022-10-13T04:07:36.326Z,52.70
2022-10-13T04:10:11.376Z,52.70
2022-10-13T04:12:38.781Z,52.70
2022-10-13T04:15:05.956Z,52.80
2022-10-13T04:17:32.567Z,52.70
2022-10-13T04:19:59.343Z,52.80
2022-10-13T04:22:25.972Z,52.80
2022-10-13T04:24:52.690Z,52.80
2022-10-13T04:27:20.134Z,52.70
2022-10-13T04:29:46.750Z,52.70
2022-10-13T04:32:13.582Z,52.80
2022-10-13T04:34:40.383Z,52.80
2022-10-13T04:37:07.156Z,52.90
2022-10-13T04:39:33.847Z,52.90
2022-10-13T04:42:00.726Z,52.90
2022-10-13T04:44:27.387Z,52.90
2022-10-13T04:46:54.090Z,52.90
2022-10-13T04:49:20.766Z,52.90
2022-10-13T04:51:47.509Z,52.90
2022-10-13T04:54:14.396Z,52.90
2022-10-13T04:56:41.064Z,52.90
2022-10-13T04:59:07.830Z,52.90
2022-10-13T05:01:36.021Z,53.40
2022-10-13T05:04:06.187Z,53.00
2022-10-13T05:06:48.578Z,53.00
2022-10-13T05:09:24.237Z,53.10
2022-10-13T05:11:51.124Z,53.10
2022-10-13T05:14:17.761Z,53.00
2022-10-13T05:16:44.393Z,53.10
2022-10-13T05:19:15.647Z,53.10
2022-10-13T05:21:42.362Z,53.10
2022-10-13T05:24:13.517Z,53.00
2022-10-13T05:26:40.914Z,53.10
2022-10-13T05:29:08.305Z,53.10
2022-10-13T05:31:36.181Z,53.10
2022-10-13T05:34:03.279Z,53.10
2022-10-13T05:36:33.331Z,53.10
2022-10-13T05:39:02.727Z,53.20
2022-10-13T05:41:30.698Z,53.20
2022-10-13T05:44:02.856Z,53.30
2022-10-13T05:46:30.035Z,53.30
2022-10-13T05:48:56.922Z,53.30
2022-10-13T05:51:37.173Z,53.30
2022-10-13T05:54:10.151Z,53.40
2022-10-13T05:56:45.422Z,53.40
2022-10-13T05:59:14.921Z,53.50
2022-10-13T06:01:47.108Z,53.40
2022-10-13T06:04:21.808Z,53.40
2022-10-13T06:06:49.109Z,53.40
2022-10-13T06:09:15.986Z,53.40
2022-10-13T06:11:43.517Z,53.40
2022-10-13T06:14:10.221Z,53.50
2022-10-13T06:16:37.081Z,53.40
2022-10-13T06:19:05.394Z,53.40
2022-10-13T06:21:34.665Z,53.50
2022-10-13T06:24:01.573Z,53.60
2022-10-13T06:26:28.484Z,53.60
2022-10-13T06:28:59.270Z,53.60
2022-10-13T06:31:27.311Z,53.70
2022-10-13T06:33:54.038Z,53.60
2022-10-13T06:36:20.896Z,54.20
2022-10-13T06:38:47.556Z,53.80
2022-10-13T06:41:15.169Z,53.90
2022-10-13T06:43:42.537Z,53.90
2022-10-13T06:46:13.102Z,53.90
2022-10-13T06:48:40.023Z,54.00
2022-10-13T06:51:09.502Z,54.00
2022-10-13T06:53:36.642Z,54.10
2022-10-13T06:56:05.605Z,54.50
2022-10-13T06:58:32.461Z,54.00
2022-10-13T07:00:59.648Z,54.00
2022-10-13T07:03:26.422Z,54.00
2022-10-13T07:05:53.586Z,54.00
2022-10-13T07:08:20.638Z,54.00
2022-10-13T07:10:47.537Z,54.00
2022-10-13T07:13:14.414Z,54.10
2022-10-13T07:15:41.152Z,54.10
2022-10-13T07:18:08.084Z,54.10
2022-10-13T07:20:34.979Z,54.30
2022-10-13T07:23:02.474Z,54.20
2022-10-13T07:25:29.297Z,54.20
2022-10-13T07:27:56.025Z,54.20
2022-10-13T07:30:22.644Z,54.20
2022-10-13T07:32:49.557Z,54.30
2022-10-13T07:35:16.348Z,54.30
2022-10-13T07:37:43.914Z,54.30
2022-10-13T07:40:11.305Z,54.30
2022-10-13T07:42:37.983Z,54.40
2022-10-13T07:45:05.159Z,54.30
2022-10-13T07:47:33.203Z,54.30
2022-10-13T07:49:59.836Z,54.30
2022-10-13T07:52:26.693Z,54.20
2022-10-13T07:54:53.942Z,54.30
2022-10-13T07:57:20.720Z,54.50
2022-10-13T07:59:47.347Z,54.60
2022-10-13T08:02:15.837Z,54.80
2022-10-13T08:04:42.552Z,54.70
2022-10-13T08:07:09.463Z,54.60
2022-10-13T08:09:36.275Z,54.50
2022-10-13T08:12:03.495Z,54.30
2022-10-13T08:14:31.262Z,54.30
2022-10-13T08:16:58.305Z,54.30
2022-10-13T08:19:26.354Z,54.30
2022-10-13T08:21:58.681Z,54.30
2022-10-13T08:24:27.259Z,54.10
2022-10-13T08:26:53.985Z,53.90
2022-10-13T08:29:22.340Z,53.80
2022-10-13T08:31:51.160Z,53.70
2022-10-13T08:34:18.000Z,54.10
2022-10-13T08:36:44.922Z,53.70
2022-10-13T08:39:11.869Z,53.70
2022-10-13T08:41:43.766Z,53.70
2022-10-13T08:47:42.089Z,53.90
2022-10-13T08:50:20.148Z,53.90
2022-10-13T08:53:16.149Z,53.80
2022-10-13T08:55:55.636Z,53.90
2022-10-13T08:58:31.513Z,53.90
2022-10-13T09:01:20.083Z,54.00
2022-10-13T09:04:13.765Z,54.30
2022-10-13T09:06:45.242Z,54.40
2022-10-13T09:09:15.436Z,54.70
2022-10-13T09:11:49.414Z,55.40
2022-10-13T09:14:21.947Z,55.70
2022-10-13T09:16:51.632Z,56.00
2022-10-13T09:19:23.304Z,56.50
2022-10-13T09:21:56.506Z,57.10
2022-10-13T09:24:25.059Z,57.10
2022-10-13T09:27:04.178Z,57.30
2022-10-13T09:29:32.723Z,55.70
2022-10-13T09:32:18.921Z,55.10
2022-10-13T09:34:46.321Z,53.20
2022-10-13T09:37:24.400Z,53.30
2022-10-13T09:40:11.836Z,52.80
2022-10-13T09:42:39.309Z,52.10
2022-10-13T09:45:20.874Z,52.10
2022-10-13T09:47:54.440Z,50.90
2022-10-13T09:50:25.485Z,50.80
2022-10-13T09:52:54.394Z,50.50
2022-10-13T09:55:33.090Z,50.50
2022-10-13T09:58:14.433Z,49.80
2022-10-13T10:00:42.168Z,49.60
2022-10-13T10:03:25.050Z,49.50
2022-10-13T10:05:55.727Z,49.20
2022-10-13T10:09:05.077Z,49.50
2022-10-13T10:11:34.673Z,49.80
2022-10-13T10:14:15.300Z,50.30
2022-10-13T10:16:48.039Z,50.00
2022-10-13T10:19:24.601Z,50.40
2022-10-13T10:22:07.994Z,50.50
2022-10-13T10:24:52.725Z,50.40
2022-10-13T10:27:45.189Z,50.50
2022-10-13T10:30:17.853Z,50.60
2022-10-13T10:32:56.658Z,51.20
2022-10-13T10:35:44.258Z,51.20
2022-10-13T10:38:14.075Z,50.60
2022-10-13T10:41:36.382Z,50.30
2022-10-13T10:44:41.999Z,49.00
2022-10-13T10:47:28.123Z,49.00
2022-10-13T10:50:01.197Z,48.20
2022-10-13T10:52:53.079Z,48.10
2022-10-13T10:55:57.406Z,47.30
2022-10-13T10:58:39.144Z,46.90
2022-10-13T11:01:11.824Z,47.30
2022-10-13T11:04:20.442Z,47.50
2022-10-13T11:06:47.189Z,47.50
2022-10-13T11:09:13.976Z,47.90
2022-10-13T11:11:42.754Z,48.10
2022-10-13T11:14:22.988Z,48.20
2022-10-13T11:17:09.032Z,48.30
2022-10-13T11:19:40.610Z,48.40
2022-10-13T11:22:07.206Z,48.70
2022-10-13T11:24:38.603Z,49.00
2022-10-13T11:27:11.344Z,49.20
2022-10-13T11:29:44.137Z,49.30
2022-10-13T11:32:46.115Z,49.10
2022-10-13T11:35:12.836Z,48.80
2022-10-13T11:38:07.313Z,48.90
2022-10-13T11:41:02.825Z,47.60
2022-10-13T11:43:41.151Z,48.00
2022-10-13T11:46:20.199Z,48.20
2022-10-13T11:48:47.637Z,48.00
2022-10-13T11:51:41.998Z,47.80
2022-10-13T11:54:21.725Z,47.20
2022-10-13T11:56:52.060Z,47.50
2022-10-13T11:59:33.438Z,47.40
2022-10-13T12:02:09.735Z,47.40
2022-10-13T12:04:36.877Z,47.00
2022-10-13T12:07:09.911Z,47.30
2022-10-13T12:09:56.952Z,47.40
2022-10-13T12:12:25.066Z,47.30
2022-10-13T12:14:54.339Z,47.60
2022-10-13T12:17:26.594Z,47.70
2022-10-13T12:20:02.264Z,47.80
2022-10-13T12:22:30.657Z,47.70
2022-10-13T12:25:06.821Z,47.70
2022-10-13T12:27:45.504Z,47.50
2022-10-13T12:30:37.089Z,47.50
2022-10-13T12:33:19.390Z,47.20
2022-10-13T12:35:46.118Z,47.50
2022-10-13T12:38:19.667Z,47.70
2022-10-13T12:40:49.792Z,47.60
2022-10-13T12:43:19.975Z,47.70
2022-10-13T12:45:48.824Z,47.60
2022-10-13T12:48:36.803Z,47.70
2022-10-13T12:51:19.801Z,47.30
2022-10-13T12:53:47.878Z,47.00
2022-10-13T12:56:33.525Z,47.20
2022-10-13T12:59:00.859Z,47.10
2022-10-13T13:01:30.804Z,47.20
2022-10-13T13:04:00.808Z,47.30
2022-10-13T13:06:31.534Z,47.50
2022-10-13T13:09:21.810Z,47.50
2022-10-13T13:11:49.388Z,47.40
2022-10-13T13:14:49.874Z,47.60
2022-10-13T13:20:20.536Z,47.60
2022-10-13T13:22:47.856Z,47.40
2022-10-13T13:25:15.596Z,47.60
2022-10-13T13:27:42.481Z,47.50
2022-10-13T13:30:14.652Z,47.30
2022-10-13T13:32:41.574Z,47.00
2022-10-13T13:35:09.421Z,46.90
2022-10-13T13:37:42.621Z,46.90
2022-10-13T13:40:16.566Z,46.70
2022-10-13T13:42:43.274Z,46.70
2022-10-13T13:45:18.610Z,46.70
2022-10-13T13:47:46.694Z,46.70
2022-10-13T13:50:23.709Z,46.90
2022-10-13T13:52:56.463Z,46.80
2022-10-13T13:55:23.456Z,46.80
2022-10-13T13:57:50.074Z,46.80
2022-10-13T14:00:17.424Z,47.00
2022-10-13T14:02:49.188Z,47.10
2022-10-13T14:05:16.158Z,47.10
2022-10-13T14:07:43.023Z,47.20
2022-10-13T14:10:11.227Z,47.30
2022-10-13T14:12:38.033Z,47.40
2022-10-13T14:15:05.525Z,47.50
2022-10-13T14:17:32.182Z,47.70
2022-10-13T14:20:00.420Z,47.90
2022-10-13T14:22:27.440Z,48.00
2022-10-13T14:24:54.655Z,48.10
2022-10-13T14:27:21.344Z,48.30
2022-10-13T14:29:48.104Z,48.40
2022-10-13T14:32:15.779Z,48.40
2022-10-13T14:34:42.396Z,48.60
2022-10-13T14:37:09.121Z,48.70
2022-10-13T14:39:35.802Z,48.70
2022-10-13T14:42:02.507Z,48.50
2022-10-13T14:44:29.129Z,48.60
2022-10-13T14:46:56.205Z,48.60
2022-10-13T14:49:22.876Z,48.60
2022-10-13T14:51:50.594Z,48.50
2022-10-13T14:54:17.949Z,48.40
2022-10-13T14:56:44.838Z,48.40
2022-10-13T14:59:12.551Z,48.20
2022-10-13T15:01:41.432Z,48.10
2022-10-13T15:04:08.998Z,48.20
2022-10-13T15:06:41.370Z,48.10
2022-10-13T15:11:41.357Z,48.00
2022-10-13T15:14:09.618Z,48.10
2022-10-13T15:16:37.792Z,48.20
2022-10-13T15:19:04.857Z,48.20
2022-10-13T15:21:31.649Z,48.50
2022-10-13T15:23:58.300Z,48.60
2022-10-13T15:26:25.097Z,48.60
2022-10-13T15:28:53.269Z,48.70
2022-10-13T15:31:22.022Z,48.70
2022-10-13T15:33:51.687Z,48.80
2022-10-13T15:36:21.966Z,49.00
2022-10-13T15:38:48.940Z,49.20
2022-10-13T15:41:16.088Z,49.40
2022-10-13T15:43:42.990Z,49.50
2022-10-13T15:46:21.119Z,49.50
2022-10-13T15:48:49.560Z,49.60
2022-10-13T15:51:19.388Z,49.50
2022-10-13T15:53:47.822Z,49.60
2022-10-13T15:56:14.970Z,49.70
2022-10-13T15:58:41.850Z,49.80
2022-10-13T16:01:10.190Z,49.90
2022-10-13T16:03:37.246Z,50.10
2022-10-13T16:06:06.260Z,50.40
2022-10-13T16:08:36.002Z,50.60
2022-10-13T16:11:08.252Z,50.80
2022-10-13T16:13:34.983Z,50.90
2022-10-13T16:16:02.054Z,50.80
2022-10-13T16:18:30.769Z,50.90
2022-10-13T16:20:57.597Z,50.90
2022-10-13T16:23:25.169Z,50.90
2022-10-13T16:25:51.945Z,51.00
2022-10-13T16:28:18.700Z,51.10
2022-10-13T16:30:45.467Z,51.20
2022-10-13T16:33:12.098Z,51.20
2022-10-13T16:35:38.822Z,51.20
2022-10-13T16:38:06.234Z,51.30
2022-10-13T16:40:33.038Z,51.10
2022-10-13T16:42:59.741Z,51.20
2022-10-13T16:45:47.806Z,51.40
2022-10-13T16:48:13.214Z,51.50
2022-10-13T16:50:40.044Z,51.50
2022-10-13T16:53:06.655Z,51.60
2022-10-13T16:55:33.446Z,51.70
2022-10-13T16:58:00.160Z,51.80
2022-10-13T17:00:27.066Z,51.80
2022-10-13T17:02:54.698Z,52.00
2022-10-13T17:05:21.278Z,51.90
2022-10-13T17:07:48.022Z,52.00
2022-10-13T17:10:14.685Z,52.00
2022-10-13T17:12:41.571Z,52.10
2022-10-13T17:15:08.868Z,52.20
2022-10-13T17:17:35.833Z,52.30
2022-10-13T17:20:02.710Z,52.30
2022-10-13T17:22:29.461Z,52.40
2022-10-13T17:24:56.126Z,52.50
2022-10-13T17:27:23.336Z,53.00
2022-10-13T17:29:53.241Z,52.60
2022-10-13T17:32:20.293Z,52.80
2022-10-13T17:34:47.426Z,52.80
2022-10-13T17:37:14.266Z,53.00
2022-10-13T17:39:40.858Z,53.00
2022-10-13T17:42:07.798Z,53.00
2022-10-13T17:44:34.477Z,53.10
2022-10-13T17:47:01.109Z,53.20
2022-10-13T17:49:27.743Z,53.20
2022-10-13T17:51:54.830Z,53.20
2022-10-13T17:54:21.844Z,53.30
2022-10-13T17:56:49.121Z,53.30
2022-10-13T17:59:17.265Z,53.40
2022-10-13T18:01:44.487Z,53.30
2022-10-13T18:04:14.209Z,53.40
2022-10-13T18:06:45.114Z,53.40
2022-10-13T18:09:19.274Z,53.40
2022-10-13T18:11:50.677Z,53.60
2022-10-13T18:14:19.734Z,53.60
2022-10-13T18:16:49.672Z,53.70
2022-10-13T18:19:16.564Z,53.80
2022-10-13T18:21:43.365Z,53.90
2022-10-13T18:24:11.158Z,53.90
2022-10-13T18:26:37.982Z,53.90
2022-10-13T18:29:06.758Z,54.00
2022-10-13T18:31:36.017Z,54.10
2022-10-13T18:34:08.447Z,54.30
2022-10-13T18:36:41.011Z,54.20
2022-10-13T18:39:15.785Z,54.30
2022-10-13T18:41:45.493Z,54.50
2022-10-13T18:44:12.464Z,54.30
2022-10-13T18:46:39.793Z,54.30
2022-10-13T18:49:10.205Z,54.50
2022-10-13T18:51:39.019Z,54.60
2022-10-13T18:54:06.086Z,54.50
2022-10-13T18:56:34.302Z,54.50
2022-10-13T18:59:01.902Z,54.50
2022-10-13T19:01:33.839Z,54.60
2022-10-13T19:04:00.902Z,54.90
2022-10-13T19:06:30.563Z,54.70
2022-10-13T19:09:04.083Z,54.70
2022-10-13T19:11:34.069Z,54.90
2022-10-13T19:14:02.006Z,54.90
2022-10-13T19:16:30.755Z,54.90
2022-10-13T19:18:57.616Z,55.00
2022-10-13T19:21:25.052Z,54.90
2022-10-13T19:23:52.162Z,55.60
2022-10-13T19:26:23.799Z,55.80
2022-10-13T19:28:54.692Z,55.40
2022-10-13T19:31:23.629Z,55.40
2022-10-13T19:33:52.436Z,55.30
2022-10-13T19:36:26.583Z,55.30
2022-10-13T19:38:56.106Z,55.50
2022-10-13T19:41:23.102Z,55.70
2022-10-13T19:43:50.401Z,55.60
2022-10-13T19:46:17.593Z,55.50
2022-10-13T19:48:44.807Z,55.50
2022-10-13T19:51:11.880Z,55.40
2022-10-13T19:53:39.162Z,55.50
2022-10-13T19:56:06.785Z,55.40
2022-10-13T19:58:34.387Z,55.50
2022-10-13T20:01:08.032Z,55.50
2022-10-13T20:03:34.766Z,55.90
2022-10-13T20:06:06.047Z,55.70
2022-10-13T20:08:38.109Z,56.00
2022-10-13T20:11:10.381Z,55.70
2022-10-13T20:13:37.217Z,55.80
2022-10-13T20:16:09.289Z,55.70
2022-10-13T20:18:36.983Z,55.90
2022-10-13T20:21:10.361Z,55.90
2022-10-13T20:23:37.474Z,55.90
2022-10-13T20:26:06.302Z,55.80
2022-10-13T20:28:40.557Z,55.90
2022-10-13T20:31:12.898Z,55.80
2022-10-13T20:33:40.716Z,55.80
2022-10-13T20:36:11.069Z,55.90
2022-10-13T20:38:38.481Z,55.90
2022-10-13T20:41:09.668Z,55.80
2022-10-13T20:43:36.977Z,55.80
2022-10-13T20:46:06.129Z,55.90
2022-10-13T20:48:57.707Z,55.80
2022-10-13T20:51:23.366Z,55.70
2022-10-13T20:53:51.108Z,55.70
2022-10-13T20:56:20.773Z,55.60
2022-10-13T20:58:47.937Z,55.70
2022-10-13T21:01:15.717Z,55.60
2022-10-13T21:03:42.432Z,55.50
2022-10-13T21:06:12.101Z,55.60
2022-10-13T21:08:39.106Z,55.60
2022-10-13T21:11:11.222Z,55.80
2022-10-13T21:13:39.037Z,55.90
2022-10-13T21:16:11.316Z,55.80
2022-10-13T21:18:38.342Z,56.00
2022-10-13T21:21:11.977Z,55.90
2022-10-13T21:23:40.336Z,56.10
2022-10-13T21:26:09.069Z,56.00
2022-10-13T21:28:39.250Z,56.10
2022-10-13T21:31:09.110Z,56.20
2022-10-13T21:33:37.706Z,56.10
2022-10-13T21:36:13.527Z,56.10
2022-10-13T21:38:41.572Z,56.30
2022-10-13T21:41:09.922Z,56.10
2022-10-13T21:43:36.673Z,56.20
2022-10-13T21:46:21.290Z,56.10
2022-10-13T21:48:54.730Z,56.40
2022-10-13T21:51:23.071Z,56.10
2022-10-13T21:53:52.354Z,56.10
2022-10-13T21:56:19.379Z,56.10
2022-10-13T21:58:47.424Z,56.00
2022-10-13T22:01:14.122Z,56.00
2022-10-13T22:03:41.763Z,56.00
2022-10-13T22:06:17.458Z,56.10
2022-10-13T22:08:46.326Z,56.10
2022-10-13T22:11:15.194Z,56.30
2022-10-13T22:13:42.074Z,56.30
2022-10-13T22:16:13.133Z,56.20
2022-10-13T22:18:44.911Z,56.30
2022-10-13T22:21:15.478Z,56.20
2022-10-13T22:23:42.641Z,56.40
2022-10-13T22:26:09.492Z,56.40
2022-10-13T22:28:37.650Z,56.30
2022-10-13T22:31:06.428Z,56.40
2022-10-13T22:33:35.130Z,56.40
2022-10-13T22:36:07.167Z,56.40
2022-10-13T22:38:33.773Z,56.50
2022-10-13T22:41:05.310Z,56.40
2022-10-13T22:43:32.556Z,56.50
2022-10-13T22:46:18.716Z,56.50
2022-10-13T22:48:45.470Z,56.60
2022-10-13T22:51:16.572Z,56.40
2022-10-13T22:53:43.806Z,56.50
2022-10-13T22:56:14.740Z,56.40
2022-10-13T22:58:41.729Z,56.50
2022-10-13T23:01:14.489Z,56.40
2022-10-13T23:03:41.931Z,56.60
2022-10-13T23:06:13.462Z,56.50
2022-10-13T23:08:40.341Z,56.70
2022-10-13T23:11:07.210Z,56.60
2022-10-13T23:13:33.826Z,56.60
2022-10-13T23:16:10.821Z,56.60
2022-10-13T23:18:39.500Z,56.90
2022-10-13T23:21:12.554Z,56.70
2022-10-13T23:23:39.558Z,56.80
2022-10-13T23:26:08.710Z,57.00
2022-10-13T23:28:35.825Z,56.80
2022-10-13T23:31:06.585Z,56.70
2022-10-13T23:33:34.037Z,56.80
2022-10-13T23:36:02.154Z,56.90
2022-10-13T23:38:30.214Z,57.00
2022-10-13T23:41:05.786Z,57.00
2022-10-13T23:43:34.520Z,57.20
2022-10-13T23:46:01.942Z,57.10
2022-10-13T23:48:28.697Z,57.10
2022-10-13T23:50:55.973Z,57.10
2022-10-13T23:53:22.965Z,57.20
2022-10-13T23:55:49.797Z,57.10
2022-10-13T23:58:16.493Z,57.20
